Time;durP1;ratioP1;P1;durP2;ratioP2;P2;SDS_P1;SDS_P2;PMS_P1;PMS_P2;Temp;Humidity;BMP_temperature;BMP_pressure;BME280_temperature;BME280_humidity;BME280_pressure;Samples;Min_cycle;Max_cycle;Signal;HPM_P1;HPM_P2
2022/10/18 00:09:37;;;;;;;2.03;1.60;;;21.60;57.50;;;;;;20957708;28;20028;-79
2022/10/18 00:19:38;;;;;;;2.58;1.77;;;21.50;57.70;;;;;;20934135;28;20036;-80
2022/10/18 00:29:38;;;;;;;1.92;1.52;;;21.50;57.40;;;;;;20939014;28;20043;-79
2022/10/18 00:39:39;;;;;;;3.40;1.85;;;21.60;57.50;;;;;;20953010;28;20461;-79
2022/10/18 00:49:42;;;;;;;3.22;1.83;;;21.50;57.50;;;;;;20954439;28;20478;-78
2022/10/18 00:59:43;;;;;;;1.77;1.48;;;21.50;57.50;;;;;;20934624;28;20040;-79
2022/10/18 01:09:52;;;;;;;2.03;1.33;;;21.40;57.40;;;;;;20943189;28;20461;-78
2022/10/18 01:20:10;;;;;;;2.15;1.50;;;21.50;57.50;;;;;;20919195;28;20132;-78
2022/10/18 01:30:36;;;;;;;1.70;1.40;;;21.40;57.50;;;;;;20919027;28;20459;-79
2022/10/18 01:40:37;;;;;;;1.67;1.43;;;21.40;57.60;;;;;;20935922;28;20041;-78
2022/10/18 01:50:37;;;;;;;1.90;1.45;;;21.40;57.50;;;;;;20894778;28;20429;-78
2022/10/18 02:00:40;;;;;;;2.23;1.60;;;21.40;57.60;;;;;;21350389;22;20421;-79
2022/10/18 02:10:47;;;;;;;3.08;1.45;;;21.40;57.70;;;;;;21006560;28;20810;-80
2022/10/18 02:20:47;;;;;;;1.35;1.20;;;21.40;57.70;;;;;;21021966;28;20040;-80
2022/10/18 02:31:26;;;;;;;1.37;1.20;;;21.40;57.70;;;;;;20982227;28;20107;-78
2022/10/18 02:41:26;;;;;;;2.08;1.30;;;21.30;57.70;;;;;;21014176;28;20363;-79
2022/10/18 02:51:27;;;;;;;1.38;1.17;;;21.30;57.70;;;;;;20994434;28;20029;-78
2022/10/18 03:01:27;;;;;;;2.50;1.40;;;21.30;57.70;;;;;;21037863;28;20036;-78
2022/10/18 03:11:28;;;;;;;2.67;1.70;;;21.30;57.80;;;;;;21011335;28;20040;-78
2022/10/18 03:21:29;;;;;;;1.93;1.13;;;21.30;57.80;;;;;;21037381;28;20293;-79
2022/10/18 03:31:29;;;;;;;1.43;1.20;;;21.30;57.80;;;;;;21028202;28;20028;-78
2022/10/18 03:41:30;;;;;;;1.73;1.23;;;21.30;57.90;;;;;;21017822;28;20306;-78
2022/10/18 03:51:31;;;;;;;1.58;1.13;;;21.30;57.90;;;;;;21086714;28;20376;-77
2022/10/18 04:01:31;;;;;;;1.90;1.20;;;21.20;57.80;;;;;;21020382;28;20040;-77
2022/10/18 04:11:32;;;;;;;1.48;1.17;;;21.20;57.90;;;;;;21009311;28;20042;-76
2022/10/18 04:21:33;;;;;;;1.58;1.48;;;21.20;57.90;;;;;;21033217;28;20037;-74
2022/10/18 04:31:33;;;;;;;1.45;1.02;;;21.20;57.90;;;;;;21021496;28;20599;-77
2022/10/18 04:41:35;;;;;;;1.17;1.08;;;21.20;58.00;;;;;;21023183;28;20048;-79
2022/10/18 04:51:36;;;;;;;1.52;0.93;;;21.20;58.00;;;;;;21006457;28;20024;-80
2022/10/18 05:01:36;;;;;;;1.25;1.02;;;21.20;58.10;;;;;;21010230;28;20127;-78
2022/10/18 05:11:37;;;;;;;1.48;0.90;;;21.10;58.00;;;;;;20997551;28;20042;-78
2022/10/18 05:21:38;;;;;;;2.15;1.42;;;21.10;58.00;;;;;;21050671;28;20038;-80
2022/10/18 05:31:40;;;;;;;1.10;1.00;;;21.10;58.10;;;;;;21011709;28;20028;-79
2022/10/18 05:41:41;;;;;;;2.78;1.10;;;21.10;58.10;;;;;;21022346;28;20373;-80
2022/10/18 05:51:41;;;;;;;1.27;1.02;;;21.10;58.10;;;;;;21009372;28;20744;-79
2022/10/18 06:01:43;;;;;;;1.60;1.38;;;21.10;58.20;;;;;;21017828;28;20043;-80
2022/10/18 06:11:44;;;;;;;1.83;1.08;;;21.10;58.80;;;;;;21027046;28;20161;-80
2022/10/18 06:21:46;;;;;;;1.33;1.00;;;21.10;58.20;;;;;;21025892;28;20040;-78
2022/10/18 06:31:47;;;;;;;1.67;1.20;;;21.10;58.30;;;;;;21048860;28;20016;-78
2022/10/18 06:41:52;;;;;;;2.13;1.42;;;21.00;58.20;;;;;;21012839;28;20339;-82
2022/10/18 06:51:54;;;;;;;1.23;1.00;;;21.00;58.30;;;;;;21027200;28;20092;-79
2022/10/18 07:01:55;;;;;;;1.30;1.00;;;21.00;58.30;;;;;;21033863;28;20174;-73
2022/10/18 07:11:56;;;;;;;4.10;1.55;;;21.00;58.40;;;;;;21036995;28;20041;-77
2022/10/18 07:21:57;;;;;;;1.58;1.17;;;21.00;58.40;;;;;;20996293;28;20044;-79
2022/10/18 07:31:58;;;;;;;1.83;1.33;;;21.00;58.50;;;;;;21033390;28;20024;-81
2022/10/18 07:42:02;;;;;;;2.10;1.20;;;20.90;58.50;;;;;;20981051;28;20530;-82
2022/10/18 07:52:03;;;;;;;2.30;1.48;;;21.00;58.60;;;;;;21042150;28;20036;-82
2022/10/18 08:02:04;;;;;;;1.88;1.25;;;20.90;58.60;;;;;;21001426;28;20401;-81
2022/10/18 08:12:05;;;;;;;1.98;1.35;;;20.90;58.60;;;;;;20995223;28;20059;-82
2022/10/18 08:22:08;;;;;;;1.38;1.15;;;21.00;58.70;;;;;;21052974;28;20085;-82
2022/10/18 08:32:09;;;;;;;2.08;1.50;;;20.90;58.80;;;;;;21015359;28;20036;-85
2022/10/18 08:42:20;;;;;;;1.50;1.40;;;20.90;58.80;;;;;;21050440;28;20043;-82
2022/10/18 08:52:34;;;;;;;2.28;1.33;;;20.80;58.80;;;;;;21014586;28;20058;-82
2022/10/18 09:02:47;;;;;;;2.23;1.40;;;20.90;58.90;;;;;;21021560;28;20051;-78
2022/10/18 09:13:07;;;;;;;1.52;1.13;;;20.80;58.90;;;;;;20992389;28;20344;-81
2022/10/18 09:23:21;;;;;;;1.85;1.40;;;20.80;59.10;;;;;;21032756;28;20040;-80
2022/10/18 09:33:43;;;;;;;2.60;1.48;;;20.80;59.20;;;;;;20993053;28;20371;-80
2022/10/18 09:44:07;;;;;;;3.30;1.63;;;20.80;59.30;;;;;;20972417;28;20113;-81
2022/10/18 09:54:31;;;;;;;2.03;1.38;;;20.80;59.40;;;;;;20988577;28;20032;-79
2022/10/18 10:04:32;;;;;;;1.60;1.38;;;20.80;59.50;;;;;;20980959;28;20040;-80
2022/10/18 10:14:33;;;;;;;3.77;1.90;;;20.70;59.60;;;;;;21012080;28;20032;-81
2022/10/18 10:24:46;;;;;;;2.55;1.88;;;20.70;59.70;;;;;;21006500;28;20430;-81
2022/10/18 10:34:48;;;;;;;2.60;1.83;;;20.70;59.80;;;;;;20994083;28;20036;-81
2022/10/18 10:44:53;;;;;;;4.75;1.95;;;20.80;60.00;;;;;;21012333;28;20039;-81
2022/10/18 10:55:01;;;;;;;3.83;2.40;;;20.70;60.00;;;;;;20993737;28;20036;-81
2022/10/18 11:05:22;;;;;;;10.73;4.57;;;20.70;60.80;;;;;;21032943;28;20534;-81
2022/10/18 11:15:34;;;;;;;8.90;4.25;;;20.60;61.90;;;;;;20997529;28;20029;-80
2022/10/18 11:25:47;;;;;;;8.05;3.92;;;20.70;62.40;;;;;;21028188;28;20397;-80
2022/10/18 11:36:04;;;;;;;5.57;3.80;;;20.70;62.40;;;;;;20985142;28;20024;-76
2022/10/18 11:46:32;;;;;;;4.82;3.20;;;20.80;62.40;;;;;;20984432;28;20029;-77
2022/10/18 11:56:58;;;;;;;4.63;2.60;;;20.90;62.30;;;;;;20996823;28;20036;-77
2022/10/18 12:06:58;;;;;;;3.80;2.75;;;20.90;61.90;;;;;;21001208;28;20402;-77
2022/10/18 12:17:03;;;;;;;3.25;2.00;;;21.10;61.50;;;;;;21019687;28;20036;-78
2022/10/18 12:27:04;;;;;;;;;;;21.20;61.00;;;;;;20987763;28;20063;-77
2022/10/18 12:37:44;;;;;;;5.75;2.25;;;21.30;60.70;;;;;;20984095;28;19965;-77
2022/10/18 12:47:44;;;;;;;4.43;2.25;;;21.50;59.80;;;;;;20971948;28;20047;-77
2022/10/18 12:58:14;;;;;;;3.47;1.88;;;21.70;59.30;;;;;;20995066;28;20143;-77
2022/10/18 13:08:30;;;;;;;5.57;2.28;;;21.80;58.60;;;;;;21001624;28;20071;-76
2022/10/18 13:18:34;;;;;;;3.35;1.77;;;21.90;58.20;;;;;;21008750;28;20024;-78
2022/10/18 13:28:45;;;;;;;4.90;1.67;;;22.00;57.80;;;;;;20996099;28;20063;-76
2022/10/18 13:38:52;;;;;;;4.72;1.85;;;22.00;57.60;;;;;;20985924;28;20043;-77
2022/10/18 13:49:20;;;;;;;5.20;1.95;;;22.20;57.10;;;;;;21000636;28;20039;-76
2022/10/18 13:59:42;;;;;;;4.03;1.70;;;22.30;56.70;;;;;;20978701;28;20048;-77
2022/10/18 14:09:47;;;;;;;5.10;1.75;;;22.40;56.20;;;;;;21007064;28;20036;-76
2022/10/18 14:20:24;;;;;;;5.13;1.30;;;22.80;55.00;;;;;;20943603;28;20115;-76
2022/10/18 14:30:25;;;;;;;3.90;1.10;;;23.60;52.80;;;;;;20975907;28;20090;-75
2022/10/18 14:40:38;;;;;;;6.18;1.77;;;23.40;52.80;;;;;;20983408;28;20545;-75
2022/10/18 14:50:38;;;;;;;2.97;1.15;;;22.90;53.40;;;;;;20993715;28;20082;-76
2022/10/18 15:00:39;;;;;;;4.40;1.20;;;22.90;53.70;;;;;;21041675;28;20415;-76
2022/10/18 15:10:39;;;;;;;6.57;1.40;;;23.50;52.40;;;;;;20995395;28;20040;-73
2022/10/18 15:20:41;;;;;;;3.63;1.40;;;23.80;51.40;;;;;;20989168;28;20378;-79
2022/10/18 15:30:43;;;;;;;3.75;1.10;;;23.90;51.00;;;;;;21016627;28;20040;-83
2022/10/18 15:40:44;;;;;;;2.35;1.30;;;24.00;50.80;;;;;;21010983;28;20048;-81
2022/10/18 15:50:49;;;;;;;4.35;1.55;;;23.90;50.60;;;;;;20989959;28;20024;-75
2022/10/18 16:00:52;;;;;;;3.00;1.17;;;23.90;50.60;;;;;;21025525;28;20086;-79
2022/10/18 16:10:54;;;;;;;2.50;1.23;;;23.90;51.10;;;;;;20974072;28;20475;-78
2022/10/18 16:20:55;;;;;;;2.42;1.20;;;23.80;50.60;;;;;;21004835;28;20032;-77
2022/10/18 16:30:59;;;;;;;1.85;1.05;;;23.70;50.80;;;;;;21014653;28;20064;-78
2022/10/18 16:41:02;;;;;;;2.87;1.17;;;23.60;51.60;;;;;;20999482;28;20504;-77
2022/10/18 16:51:03;;;;;;;5.07;1.23;;;23.50;51.30;;;;;;21030571;28;20032;-77
2022/10/18 17:01:19;;;;;;;1.87;1.10;;;23.30;51.60;;;;;;21024652;28;20054;-77
2022/10/18 17:11:19;;;;;;;;;;;23.20;51.70;;;;;;21020972;28;20279;-78
2022/10/18 17:21:22;;;;;;;2.33;1.15;;;23.20;51.90;;;;;;21007828;28;20437;-76
2022/10/18 17:31:25;;;;;;;2.20;1.40;;;23.10;51.90;;;;;;21010921;28;20054;-77
2022/10/18 17:41:28;;;;;;;1.77;0.75;;;23.10;51.90;;;;;;21041425;28;20088;-76
2022/10/18 17:51:30;;;;;;;2.35;1.45;;;23.00;51.90;;;;;;21037425;28;20067;-76
2022/10/18 18:01:30;;;;;;;3.60;1.58;;;23.00;51.90;;;;;;21027011;28;20060;-77
2022/10/18 18:11:31;;;;;;;1.17;0.80;;;23.00;52.00;;;;;;21038329;28;20045;-78
2022/10/18 18:21:32;;;;;;;3.75;1.80;;;22.90;52.00;;;;;;21022527;28;20329;-74
2022/10/18 18:31:34;;;;;;;2.10;1.23;;;22.90;52.00;;;;;;20975848;28;20469;-74
2022/10/18 18:41:36;;;;;;;2.53;1.63;;;22.80;52.00;;;;;;21011667;28;20066;-76
2022/10/18 18:51:40;;;;;;;3.08;1.73;;;22.80;52.10;;;;;;21018163;28;20036;-78
2022/10/18 19:01:41;;;;;;;3.28;1.45;;;22.80;52.20;;;;;;20974142;28;20432;-78
2022/10/18 19:11:42;;;;;;;2.33;1.15;;;22.80;52.20;;;;;;20968098;28;20031;-77
2022/10/18 19:21:45;;;;;;;2.15;1.38;;;22.70;52.20;;;;;;20990417;28;20390;-77
2022/10/18 19:31:49;;;;;;;4.18;1.60;;;22.60;52.20;;;;;;21010510;28;20120;-77
2022/10/18 19:41:55;;;;;;;2.80;1.38;;;22.60;52.20;;;;;;21015183;28;20048;-76
2022/10/18 19:51:59;;;;;;;2.85;1.10;;;22.60;52.30;;;;;;21015451;28;20029;-77
2022/10/18 20:02:00;;;;;;;1.95;1.48;;;22.60;52.40;;;;;;21043775;28;20033;-77
2022/10/18 20:12:02;;;;;;;2.20;1.33;;;22.50;53.00;;;;;;20998374;28;20040;-78
2022/10/18 20:22:03;;;;;;;2.80;1.65;;;22.50;52.50;;;;;;21005040;28;20044;-78
2022/10/18 20:32:04;;;;;;;2.47;1.20;;;22.50;52.50;;;;;;21046287;28;20061;-77
2022/10/18 20:42:05;;;;;;;2.65;1.17;;;22.40;52.50;;;;;;21010649;28;20048;-77
2022/10/18 20:52:05;;;;;;;2.30;1.40;;;22.40;52.60;;;;;;21048370;28;20039;-78
2022/10/18 21:02:06;;;;;;;1.98;1.10;;;22.30;52.60;;;;;;21054428;28;20391;-78
2022/10/18 21:12:08;;;;;;;1.98;1.15;;;22.30;52.70;;;;;;21035626;28;20032;-79
2022/10/18 21:22:09;;;;;;;3.00;1.30;;;22.30;52.70;;;;;;21035280;28;20036;-78
2022/10/18 21:32:10;;;;;;;2.80;1.25;;;22.20;52.80;;;;;;21051961;28;20020;-78
2022/10/18 21:42:12;;;;;;;3.47;1.35;;;22.20;52.80;;;;;;21035785;28;20530;-78
2022/10/18 21:52:15;;;;;;;2.80;1.25;;;22.20;52.90;;;;;;21034795;28;20044;-79
2022/10/18 22:02:16;;;;;;;1.40;1.02;;;22.10;52.90;;;;;;20991646;28;20410;-77
2022/10/18 22:12:17;;;;;;;2.15;1.10;;;22.10;53.00;;;;;;20974925;28;20043;-78
2022/10/18 22:22:18;;;;;;;1.58;0.95;;;22.10;53.00;;;;;;20966461;28;20048;-77
2022/10/18 22:32:19;;;;;;;2.95;1.42;;;22.10;53.10;;;;;;21011692;28;20047;-77
2022/10/18 22:42:20;;;;;;;2.03;0.95;;;22.00;53.10;;;;;;20999638;28;20116;-78
2022/10/18 22:52:22;;;;;;;2.30;1.20;;;21.90;53.10;;;;;;21002787;28;20030;-77
2022/10/18 23:02:22;;;;;;;2.33;1.13;;;21.90;53.20;;;;;;21009618;28;20119;-78
2022/10/18 23:12:25;;;;;;;5.43;1.10;;;21.90;53.20;;;;;;21023007;28;20593;-77
2022/10/18 23:22:25;;;;;;;2.97;1.00;;;21.90;53.30;;;;;;21006682;28;20123;-77
2022/10/18 23:32:27;;;;;;;2.28;0.90;;;21.90;53.30;;;;;;21018245;28;20291;-78
2022/10/18 23:42:27;;;;;;;2.65;0.85;;;21.80;53.20;;;;;;20978952;28;20036;-77
2022/10/18 23:52:28;;;;;;;4.17;1.10;;;21.80;53.30;;;;;;20962859;28;20024;-77
